Terminal Aerodrome Forecast
Issued by NWS

Home | Current Version | Previous Version | Text Only | Print | Product List | Glossary On
Versions: 1 2 3 4 5 6 7 8 9 10 11 12 13 14 15
000
FTUS45 KTWC 270520
TAFOLS
TAF
KOLS 270520Z 2706/2806 04009KT P6SM VCTS SCT070CB BKN110
     FM270700 08007KT P6SM VCSH SCT080 BKN120
     FM271000 VRB04KT P6SM SCT090 BKN150
     FM272000 31009KT P6SM VCSH SCT060 BKN120=

USA.gov is the U.S. government's official web portal to all federal, state and local government web resources and services.